createdAt,value
2023-05-24T00:00:50.413Z,25.43
2023-05-24T00:01:50.388Z,25.41
2023-05-24T00:02:50.448Z,25.41
2023-05-24T00:03:50.474Z,25.41
2023-05-24T00:04:50.425Z,25.44
2023-05-24T00:05:50.431Z,25.40
2023-05-24T00:06:50.348Z,25.41
2023-05-24T00:07:50.335Z,25.40
2023-05-24T00:08:50.341Z,25.40
2023-05-24T00:09:50.333Z,25.41
2023-05-24T00:10:50.322Z,25.40
2023-05-24T00:11:50.326Z,25.41
2023-05-24T00:12:50.310Z,25.38
2023-05-24T00:13:50.305Z,25.40
2023-05-24T00:14:50.299Z,25.38
2023-05-24T00:15:50.292Z,25.41
2023-05-24T00:16:50.314Z,25.40
2023-05-24T00:17:50.301Z,25.41
2023-05-24T00:18:50.276Z,25.41
2023-05-24T00:19:50.260Z,25.38
2023-05-24T00:20:50.280Z,25.41
2023-05-24T00:21:50.232Z,25.40
2023-05-24T00:22:50.262Z,25.41
2023-05-24T00:23:50.246Z,25.40
2023-05-24T00:24:50.272Z,25.38
2023-05-24T00:25:50.348Z,25.40
2023-05-24T00:26:50.210Z,25.40
2023-05-24T00:27:50.231Z,25.38
2023-05-24T00:28:50.212Z,25.41
2023-05-24T00:29:50.190Z,25.38
2023-05-24T00:30:50.209Z,25.40
2023-05-24T00:31:50.169Z,25.40
2023-05-24T00:32:50.210Z,25.37
2023-05-24T00:33:50.176Z,25.38
2023-05-24T00:34:50.147Z,25.40
2023-05-24T00:35:50.185Z,25.41
2023-05-24T00:36:50.162Z,25.40
2023-05-24T00:37:50.144Z,25.38
2023-05-24T00:38:50.116Z,25.38
2023-05-24T00:39:50.134Z,25.40
2023-05-24T00:40:50.176Z,25.38
2023-05-24T00:41:50.101Z,25.38
2023-05-24T00:42:50.117Z,25.37
2023-05-24T00:43:50.120Z,25.40
2023-05-24T00:44:50.116Z,25.38
2023-05-24T00:45:50.130Z,25.36
2023-05-24T00:46:50.054Z,25.40
2023-05-24T00:47:50.105Z,25.36
2023-05-24T00:48:50.068Z,25.37
2023-05-24T00:49:50.057Z,25.38
2023-05-24T00:50:50.056Z,25.37
2023-05-24T00:51:50.043Z,25.37
2023-05-24T00:52:50.046Z,25.37
2023-05-24T00:53:50.024Z,25.37
2023-05-24T00:54:50.033Z,25.34
2023-05-24T00:55:50.025Z,25.37
2023-05-24T00:56:50.002Z,25.37
2023-05-24T00:57:50.022Z,25.36
2023-05-24T00:58:49.978Z,25.36
2023-05-24T00:59:49.988Z,25.37
2023-05-24T01:00:49.952Z,25.34
2023-05-24T01:01:50.043Z,25.36
2023-05-24T01:02:49.987Z,25.37
2023-05-24T01:03:50.073Z,25.37
2023-05-24T01:04:49.950Z,25.36
2023-05-24T01:05:49.973Z,25.36
2023-05-24T01:06:49.939Z,25.37
2023-05-24T01:07:49.959Z,25.38
2023-05-24T01:08:49.902Z,25.34
2023-05-24T01:09:49.910Z,25.36
2023-05-24T01:10:49.918Z,25.36
2023-05-24T01:11:49.863Z,25.34
2023-05-24T01:12:49.881Z,25.34
2023-05-24T01:13:49.887Z,25.36
2023-05-24T01:14:49.850Z,25.33
2023-05-24T01:15:49.895Z,25.36
2023-05-24T01:16:49.864Z,25.36
2023-05-24T01:17:49.916Z,25.36
2023-05-24T01:18:49.847Z,25.34
2023-05-24T01:19:50.030Z,25.34
2023-05-24T01:20:49.916Z,25.33
2023-05-24T01:21:49.841Z,25.34
2023-05-24T01:22:49.831Z,25.33
2023-05-24T01:23:49.837Z,25.34
2023-05-24T01:24:49.793Z,25.37
2023-05-24T01:25:49.883Z,25.34
2023-05-24T01:26:49.771Z,25.34
2023-05-24T01:27:49.799Z,25.34
2023-05-24T01:28:49.757Z,25.33
2023-05-24T01:29:49.739Z,25.34
2023-05-24T01:30:49.819Z,25.33
2023-05-24T01:31:49.794Z,25.36
2023-05-24T01:32:49.742Z,25.33
2023-05-24T01:33:49.723Z,25.33
2023-05-24T01:34:49.730Z,25.34
2023-05-24T01:35:49.761Z,25.33
2023-05-24T01:36:49.721Z,25.34
2023-05-24T01:37:49.706Z,25.33
2023-05-24T01:38:49.706Z,25.31
2023-05-24T01:39:49.686Z,25.34
2023-05-24T01:40:49.783Z,25.34
2023-05-24T01:41:49.679Z,25.34
2023-05-24T01:42:49.679Z,25.34
2023-05-24T01:43:49.682Z,25.30
2023-05-24T01:44:49.684Z,25.30
2023-05-24T01:45:49.688Z,25.31
2023-05-24T01:46:49.682Z,25.34
2023-05-24T01:47:49.674Z,25.33
2023-05-24T01:48:49.642Z,25.33
2023-05-24T01:49:49.648Z,25.34
2023-05-24T01:50:49.635Z,25.33
2023-05-24T01:51:49.683Z,25.31
2023-05-24T01:52:49.598Z,25.31
2023-05-24T01:53:49.569Z,25.34
2023-05-24T01:54:49.582Z,25.33
2023-05-24T01:55:49.597Z,25.33
2023-05-24T01:56:49.571Z,25.33
2023-05-24T01:57:49.577Z,25.33
2023-05-24T01:58:49.550Z,25.31
2023-05-24T01:59:49.540Z,25.31
2023-05-24T02:00:49.581Z,25.30
2023-05-24T02:01:49.570Z,25.30
2023-05-24T02:02:49.670Z,25.29
2023-05-24T02:03:49.524Z,25.30
2023-05-24T02:04:49.556Z,25.30
2023-05-24T02:05:49.488Z,25.30
2023-05-24T02:06:49.498Z,25.31
2023-05-24T02:07:49.522Z,25.33
2023-05-24T02:08:49.506Z,25.30
2023-05-24T02:09:49.492Z,25.30
2023-05-24T02:10:49.499Z,25.30
2023-05-24T02:11:49.502Z,25.29
2023-05-24T02:12:49.494Z,25.31
2023-05-24T02:13:49.453Z,25.31
2023-05-24T02:14:49.498Z,25.29
2023-05-24T02:15:49.493Z,25.29
2023-05-24T02:16:49.557Z,25.29
2023-05-24T02:17:49.556Z,25.29
2023-05-24T02:18:49.542Z,25.33
2023-05-24T02:19:49.618Z,25.30
2023-05-24T02:20:49.613Z,25.30
2023-05-24T02:21:49.621Z,25.29
2023-05-24T02:22:49.634Z,25.31
2023-05-24T02:23:49.683Z,25.30
2023-05-24T02:24:49.659Z,25.30
2023-05-24T02:25:49.693Z,25.29
2023-05-24T02:26:49.702Z,25.27
2023-05-24T02:27:49.721Z,25.27
2023-05-24T02:28:49.724Z,25.29
2023-05-24T02:29:49.756Z,25.29
2023-05-24T02:30:49.811Z,25.27
2023-05-24T02:31:49.789Z,25.30
2023-05-24T02:32:49.882Z,25.31
2023-05-24T02:33:49.835Z,25.30
2023-05-24T02:34:49.861Z,25.31
2023-05-24T02:35:49.861Z,25.26
2023-05-24T02:36:49.915Z,25.26
2023-05-24T02:37:49.926Z,25.29
2023-05-24T02:38:49.951Z,25.27
2023-05-24T02:39:49.983Z,25.26
2023-05-24T02:40:49.995Z,25.27
2023-05-24T02:41:50.040Z,25.26
2023-05-24T02:42:50.041Z,25.27
2023-05-24T02:43:50.062Z,25.29
2023-05-24T02:44:50.055Z,25.26
2023-05-24T02:45:50.204Z,25.29
2023-05-24T02:46:50.095Z,25.27
2023-05-24T02:47:50.172Z,25.30
2023-05-24T02:48:50.162Z,25.29
2023-05-24T02:49:50.185Z,25.27
2023-05-24T02:50:50.178Z,25.27
2023-05-24T02:51:50.189Z,25.27
2023-05-24T02:52:50.269Z,25.27
2023-05-24T02:53:50.237Z,25.29
2023-05-24T02:54:50.289Z,25.29
2023-05-24T02:55:50.312Z,25.29
2023-05-24T02:56:50.288Z,25.29
2023-05-24T02:57:50.300Z,25.27
2023-05-24T02:58:50.343Z,25.29
2023-05-24T02:59:50.352Z,25.27
2023-05-24T03:00:50.410Z,25.29
2023-05-24T03:01:50.431Z,25.24
2023-05-24T03:02:50.546Z,25.27
2023-05-24T03:03:50.545Z,25.27
2023-05-24T03:04:50.482Z,25.24
2023-05-24T03:05:50.494Z,25.26
2023-05-24T03:06:50.516Z,25.27
2023-05-24T03:07:50.548Z,25.24
2023-05-24T03:08:50.583Z,25.27
2023-05-24T03:09:50.621Z,25.26
2023-05-24T03:10:50.622Z,25.24
2023-05-24T03:11:50.670Z,25.26
2023-05-24T03:12:50.671Z,25.26
2023-05-24T03:13:50.699Z,25.21
2023-05-24T03:14:50.725Z,25.27
2023-05-24T03:15:50.825Z,25.26
2023-05-24T03:16:50.795Z,25.24
2023-05-24T03:17:50.848Z,25.26
2023-05-24T03:18:50.878Z,25.24
2023-05-24T03:19:50.886Z,25.26
2023-05-24T03:20:50.899Z,25.24
2023-05-24T03:21:50.933Z,25.26
2023-05-24T03:22:50.914Z,25.24
2023-05-24T03:23:50.973Z,25.26
2023-05-24T03:24:50.965Z,25.27
2023-05-24T03:25:51.034Z,25.24
2023-05-24T03:26:51.045Z,25.24
2023-05-24T03:27:51.053Z,25.26
2023-05-24T03:28:51.074Z,25.24
2023-05-24T03:29:51.124Z,25.24
2023-05-24T03:30:51.162Z,25.24
2023-05-24T03:31:51.145Z,25.23
2023-05-24T03:32:51.231Z,25.24
2023-05-24T03:33:51.196Z,25.24
2023-05-24T03:34:51.250Z,25.23
2023-05-24T03:35:51.250Z,25.24
2023-05-24T03:36:51.290Z,25.24
2023-05-24T03:37:51.331Z,25.26
2023-05-24T03:38:51.361Z,25.23
2023-05-24T03:39:51.369Z,25.24
2023-05-24T03:40:51.397Z,25.23
2023-05-24T03:41:51.437Z,25.21
2023-05-24T03:42:51.434Z,25.24
2023-05-24T03:43:51.464Z,25.27
2023-05-24T03:44:51.485Z,25.21
2023-05-24T03:45:51.565Z,25.23
2023-05-24T03:46:51.539Z,25.23
2023-05-24T03:47:51.611Z,25.26
2023-05-24T03:48:51.592Z,25.23
2023-05-24T03:49:51.594Z,25.24
2023-05-24T03:50:51.631Z,25.24
2023-05-24T03:51:51.684Z,25.23
2023-05-24T03:52:51.680Z,25.23
2023-05-24T03:53:51.719Z,25.24
2023-05-24T03:54:51.754Z,25.23
2023-05-24T03:55:51.767Z,25.23
2023-05-24T03:56:51.759Z,25.23
2023-05-24T03:57:51.831Z,25.23
2023-05-24T03:58:51.827Z,25.23
2023-05-24T03:59:51.860Z,25.24
2023-05-24T04:00:51.907Z,25.21
2023-05-24T04:01:51.976Z,25.21
2023-05-24T04:02:52.070Z,25.23
2023-05-24T04:03:52.040Z,25.23
2023-05-24T04:04:51.994Z,25.21
2023-05-24T04:05:52.045Z,25.23
2023-05-24T04:06:52.079Z,25.24
2023-05-24T04:07:52.088Z,25.20
2023-05-24T04:08:52.126Z,25.23
2023-05-24T04:09:52.159Z,25.21
2023-05-24T04:10:52.163Z,25.23
2023-05-24T04:11:52.175Z,25.23
2023-05-24T04:12:52.218Z,25.21
2023-05-24T04:13:52.236Z,25.23
2023-05-24T04:14:52.313Z,25.23
2023-05-24T04:15:52.353Z,25.21
2023-05-24T04:16:52.398Z,25.23
2023-05-24T04:17:52.439Z,25.21
2023-05-24T04:18:52.591Z,25.23
2023-05-24T04:19:52.437Z,25.21
2023-05-24T04:20:52.494Z,25.19
2023-05-24T04:21:52.496Z,25.21
2023-05-24T04:22:52.525Z,25.20
2023-05-24T04:23:52.602Z,25.20
2023-05-24T04:24:52.758Z,25.19
2023-05-24T04:25:52.609Z,25.20
2023-05-24T04:26:52.624Z,25.20
2023-05-24T04:27:52.673Z,25.21
2023-05-24T04:28:52.697Z,25.19
2023-05-24T04:29:52.734Z,25.19
2023-05-24T04:30:52.773Z,25.20
2023-05-24T04:31:52.802Z,25.21
2023-05-24T04:32:52.898Z,25.19
2023-05-24T04:33:52.865Z,25.23
2023-05-24T04:34:52.870Z,25.20
2023-05-24T04:35:52.935Z,25.21
2023-05-24T04:36:52.947Z,25.20
2023-05-24T04:37:52.969Z,25.21
2023-05-24T04:38:52.999Z,25.20
2023-05-24T04:39:53.036Z,25.20
2023-05-24T04:40:53.031Z,25.20
2023-05-24T04:41:53.081Z,25.21
2023-05-24T04:42:53.127Z,25.19
2023-05-24T04:43:53.129Z,25.20
2023-05-24T04:44:53.184Z,25.21
2023-05-24T04:45:53.214Z,25.20
2023-05-24T04:46:53.254Z,25.19
2023-05-24T04:47:53.281Z,25.21
2023-05-24T04:48:53.256Z,25.21
2023-05-24T04:49:53.301Z,25.19
2023-05-24T04:50:53.345Z,25.21
2023-05-24T04:51:55.119Z,25.20
2023-05-24T04:52:53.411Z,25.20
2023-05-24T04:53:53.432Z,25.19
2023-05-24T04:54:53.447Z,25.20
2023-05-24T04:55:53.502Z,25.20
2023-05-24T04:56:53.514Z,25.21
2023-05-24T04:57:53.549Z,25.20
2023-05-24T04:58:53.580Z,25.21
2023-05-24T04:59:53.618Z,25.20
2023-05-24T05:00:53.637Z,25.20
2023-05-24T05:01:53.689Z,25.19
2023-05-24T05:02:53.747Z,25.19
2023-05-24T05:03:53.703Z,25.20
2023-05-24T05:04:53.713Z,25.21
2023-05-24T05:05:53.769Z,25.20
2023-05-24T05:06:53.762Z,25.19
2023-05-24T05:07:53.818Z,25.20
2023-05-24T05:08:53.879Z,25.19
2023-05-24T05:09:53.864Z,25.21
2023-05-24T05:10:53.879Z,25.20
2023-05-24T05:11:53.890Z,25.19
2023-05-24T05:12:53.947Z,25.20
2023-05-24T05:13:53.999Z,25.20
2023-05-24T05:14:53.984Z,25.19
2023-05-24T05:15:54.020Z,25.20
2023-05-24T05:16:54.207Z,25.19
2023-05-24T05:17:54.149Z,25.20
2023-05-24T05:18:54.121Z,25.19
2023-05-24T05:19:54.176Z,25.17
2023-05-24T05:20:54.192Z,25.19
2023-05-24T05:21:54.214Z,25.19
2023-05-24T05:22:54.263Z,25.17
2023-05-24T05:23:54.270Z,25.17
2023-05-24T05:24:54.272Z,25.17
2023-05-24T05:25:54.307Z,25.19
2023-05-24T05:26:54.363Z,25.17
2023-05-24T05:27:54.396Z,25.16
2023-05-24T05:28:54.390Z,25.19
2023-05-24T05:29:54.416Z,25.17
2023-05-24T05:30:54.438Z,25.19
2023-05-24T05:31:54.517Z,25.19
2023-05-24T05:32:54.619Z,25.17
2023-05-24T05:33:54.535Z,25.17
2023-05-24T05:34:54.547Z,25.19
2023-05-24T05:35:55.080Z,25.19
2023-05-24T05:36:54.617Z,25.19
2023-05-24T05:37:54.664Z,25.17
2023-05-24T05:38:54.753Z,25.17
2023-05-24T05:39:54.740Z,25.16
2023-05-24T05:40:54.794Z,25.19
2023-05-24T05:41:54.758Z,25.17
2023-05-24T05:42:54.809Z,25.19
2023-05-24T05:43:54.849Z,25.19
2023-05-24T05:44:54.893Z,25.19
2023-05-24T05:45:54.917Z,25.19
2023-05-24T05:46:54.953Z,25.16
2023-05-24T05:47:54.965Z,25.13
2023-05-24T05:48:55.018Z,25.16
2023-05-24T05:49:55.028Z,25.14
2023-05-24T05:50:55.077Z,25.19
2023-05-24T05:51:55.100Z,25.16
2023-05-24T05:52:55.137Z,25.19
2023-05-24T05:53:55.160Z,25.19
2023-05-24T05:54:55.231Z,25.19
2023-05-24T05:55:55.253Z,25.20
2023-05-24T05:56:55.223Z,25.23
2023-05-24T05:57:55.245Z,25.17
2023-05-24T05:58:55.292Z,25.07
2023-05-24T05:59:55.352Z,25.06
2023-05-24T06:00:55.459Z,25.02
2023-05-24T06:01:55.393Z,25.02
2023-05-24T06:02:55.511Z,25.14
2023-05-24T06:03:55.611Z,25.19
2023-05-24T06:04:55.632Z,25.33
2023-05-24T06:05:55.511Z,25.44
2023-05-24T06:06:55.516Z,25.51
2023-05-24T06:07:55.529Z,25.61
2023-05-24T06:08:55.531Z,25.71
2023-05-24T06:09:55.565Z,25.81
2023-05-24T06:10:55.720Z,25.88
2023-05-24T06:11:55.703Z,25.98
2023-05-24T06:12:55.744Z,26.06
2023-05-24T06:13:55.814Z,26.11
2023-05-24T06:14:55.851Z,26.16
2023-05-24T06:15:55.922Z,26.25
2023-05-24T06:16:57.813Z,26.31
2023-05-24T06:17:55.928Z,26.36
2023-05-24T06:19:05.470Z,26.42
2023-05-24T06:19:56.898Z,26.47
2023-05-24T06:20:55.869Z,26.56
2023-05-24T06:21:55.856Z,26.62
2023-05-24T06:22:55.869Z,26.63
2023-05-24T06:23:55.894Z,26.69
2023-05-24T06:24:56.532Z,26.71
2023-05-24T06:25:55.880Z,26.76
2023-05-24T06:26:55.853Z,26.80
2023-05-24T06:27:55.827Z,26.84
2023-05-24T06:28:55.802Z,26.90
2023-05-24T06:29:55.839Z,26.91
2023-05-24T06:30:55.842Z,26.98
2023-05-24T06:31:55.861Z,27.00
2023-05-24T06:32:55.837Z,27.01
2023-05-24T06:34:03.868Z,27.05
2023-05-24T06:34:56.794Z,27.07
2023-05-24T06:35:55.782Z,27.07
2023-05-24T06:36:55.765Z,27.11
2023-05-24T06:37:55.726Z,27.08
2023-05-24T06:38:55.760Z,27.05
2023-05-24T06:39:55.752Z,27.07
2023-05-24T06:40:55.733Z,27.07
2023-05-24T06:41:55.763Z,27.07
2023-05-24T06:42:55.701Z,27.04
2023-05-24T06:43:55.728Z,27.08
2023-05-24T06:44:55.684Z,27.10
2023-05-24T06:45:55.718Z,27.08
2023-05-24T06:46:55.782Z,27.10
2023-05-24T06:47:55.734Z,27.10
2023-05-24T06:48:55.825Z,27.10
2023-05-24T06:49:55.637Z,27.10
2023-05-24T06:50:55.646Z,27.08
2023-05-24T06:51:55.664Z,27.08
2023-05-24T06:52:55.645Z,26.93
2023-05-24T06:53:55.627Z,26.86
2023-05-24T06:54:55.656Z,26.87
2023-05-24T06:55:57.609Z,26.71
2023-05-24T06:56:55.702Z,26.70
2023-05-24T06:57:55.706Z,26.62
2023-05-24T06:58:55.726Z,26.54
2023-05-24T06:59:55.760Z,26.42
2023-05-24T07:00:55.817Z,26.40
2023-05-24T07:01:55.800Z,26.31
2023-05-24T07:02:55.894Z,26.29
2023-05-24T07:03:55.867Z,26.21
2023-05-24T07:04:56.114Z,26.21
2023-05-24T07:05:55.973Z,26.13
2023-05-24T07:06:56.043Z,26.15
2023-05-24T07:07:56.077Z,26.11
2023-05-24T07:08:56.139Z,26.02
2023-05-24T07:09:56.208Z,26.02
2023-05-24T07:10:56.275Z,26.01
2023-05-24T07:11:56.346Z,25.96
2023-05-24T07:12:56.370Z,25.98
2023-05-24T07:13:56.451Z,25.95
2023-05-24T07:14:56.512Z,25.93
2023-05-24T07:15:56.596Z,25.98
2023-05-24T07:16:56.674Z,25.98
2023-05-24T07:17:56.801Z,26.01
2023-05-24T07:18:56.758Z,26.02
2023-05-24T07:19:56.898Z,26.03
2023-05-24T07:20:56.912Z,26.05
2023-05-24T07:21:56.946Z,26.09
2023-05-24T07:22:56.992Z,26.12
2023-05-24T07:23:57.017Z,26.13
2023-05-24T07:24:57.084Z,26.16
2023-05-24T07:25:57.109Z,26.18
2023-05-24T07:26:57.126Z,26.19
2023-05-24T07:27:57.166Z,26.22
2023-05-24T07:28:57.211Z,26.23
2023-05-24T07:29:57.240Z,26.23
2023-05-24T07:30:57.285Z,26.25
2023-05-24T07:31:57.334Z,26.25
2023-05-24T07:32:57.356Z,26.29
2023-05-24T07:33:57.352Z,26.28
2023-05-24T07:34:57.360Z,26.29
2023-05-24T07:35:57.431Z,26.29
2023-05-24T07:36:57.456Z,26.29
2023-05-24T07:37:57.497Z,26.31
2023-05-24T07:38:57.510Z,26.29
2023-05-24T07:39:57.543Z,26.32
2023-05-24T07:40:57.595Z,26.29
2023-05-24T07:41:57.567Z,26.32
2023-05-24T07:42:57.625Z,26.33
2023-05-24T07:43:57.612Z,26.33
2023-05-24T07:44:57.631Z,26.33
2023-05-24T07:45:57.717Z,26.31
2023-05-24T07:46:57.736Z,26.11
2023-05-24T07:47:57.828Z,25.82
2023-05-24T07:48:57.771Z,25.57
2023-05-24T07:49:57.831Z,25.37
2023-05-24T07:50:57.941Z,25.33
2023-05-24T07:51:57.914Z,25.30
2023-05-24T07:52:58.217Z,25.33
2023-05-24T07:53:58.008Z,25.43
2023-05-24T07:54:58.087Z,25.45
2023-05-24T07:55:58.086Z,25.54
2023-05-24T07:56:58.136Z,25.57
2023-05-24T07:57:58.116Z,25.54
2023-05-24T07:58:58.142Z,25.55
2023-05-24T07:59:58.167Z,25.50
2023-05-24T08:00:58.165Z,25.48
2023-05-24T08:01:58.194Z,25.50
2023-05-24T08:02:58.298Z,25.31
2023-05-24T08:03:58.406Z,25.41
2023-05-24T08:04:58.308Z,25.36
2023-05-24T08:05:58.381Z,25.23
2023-05-24T08:06:58.508Z,25.20
2023-05-24T08:07:58.453Z,25.09
2023-05-24T08:08:58.533Z,25.10
2023-05-24T08:09:58.560Z,25.03
2023-05-24T08:10:58.595Z,24.99
2023-05-24T08:11:58.560Z,25.05
2023-05-24T08:12:58.570Z,24.99
2023-05-24T08:13:58.582Z,25.09
2023-05-24T08:14:58.645Z,25.17
2023-05-24T08:15:58.726Z,25.29
2023-05-24T08:16:58.739Z,25.33
2023-05-24T08:17:58.823Z,25.41
2023-05-24T08:18:58.768Z,25.47
2023-05-24T08:19:58.820Z,25.58
2023-05-24T08:20:58.788Z,25.67
2023-05-24T08:21:58.855Z,25.74
2023-05-24T08:22:58.894Z,25.81
2023-05-24T08:23:58.974Z,25.89
2023-05-24T08:24:59.014Z,25.95
2023-05-24T08:25:59.049Z,26.05
2023-05-24T08:26:59.103Z,26.11
2023-05-24T08:27:59.147Z,26.19
2023-05-24T08:28:59.177Z,26.23
2023-05-24T08:29:59.206Z,26.28
2023-05-24T08:30:59.208Z,26.32
2023-05-24T08:31:59.277Z,26.35
2023-05-24T08:32:59.292Z,26.43
2023-05-24T08:33:59.239Z,26.47
2023-05-24T08:35:11.109Z,26.50
2023-05-24T08:36:00.284Z,26.52
2023-05-24T08:36:59.267Z,26.59
2023-05-24T08:37:59.253Z,26.62
2023-05-24T08:38:59.245Z,26.66
2023-05-24T08:39:59.208Z,26.69
2023-05-24T08:40:59.201Z,26.74
2023-05-24T08:42:59.267Z,26.79
2023-05-24T08:43:59.207Z,26.84
2023-05-24T08:44:59.210Z,26.86
2023-05-24T08:45:59.235Z,26.81
2023-05-24T08:46:59.227Z,26.83
2023-05-24T08:47:59.337Z,26.83
2023-05-24T08:48:59.227Z,26.80
2023-05-24T08:49:59.187Z,26.79
2023-05-24T08:50:59.208Z,26.77
2023-05-24T08:51:59.181Z,26.74
2023-05-24T08:52:59.132Z,26.70
2023-05-24T08:53:59.152Z,26.67
2023-05-24T08:54:59.173Z,26.66
2023-05-24T08:55:59.125Z,26.60
2023-05-24T08:56:59.148Z,26.59
2023-05-24T08:57:59.106Z,26.57
2023-05-24T08:58:59.111Z,26.56
2023-05-24T08:59:59.089Z,26.52
2023-05-24T09:00:59.133Z,26.49
2023-05-24T09:01:59.148Z,26.47
2023-05-24T09:02:59.141Z,26.46
2023-05-24T09:03:59.149Z,26.44
2023-05-24T09:04:59.062Z,26.43
2023-05-24T09:05:59.071Z,26.42
2023-05-24T09:06:59.071Z,26.42
2023-05-24T09:07:59.024Z,26.39
2023-05-24T09:08:59.036Z,26.40
2023-05-24T09:09:59.030Z,26.38
2023-05-24T09:10:59.189Z,26.36
2023-05-24T09:11:59.000Z,26.38
2023-05-24T09:12:59.034Z,26.36
2023-05-24T09:13:58.985Z,26.36
2023-05-24T09:14:58.974Z,26.35
2023-05-24T09:15:59.065Z,26.29
2023-05-24T09:16:58.963Z,26.31
2023-05-24T09:17:59.051Z,26.31
2023-05-24T09:18:58.965Z,26.32
2023-05-24T09:19:59.066Z,26.29
2023-05-24T09:20:59.011Z,26.31
2023-05-24T09:21:59.146Z,26.29
2023-05-24T09:22:58.940Z,26.31
2023-05-24T09:23:58.939Z,26.29
2023-05-24T09:24:58.902Z,26.28
2023-05-24T09:25:58.903Z,26.26
2023-05-24T09:26:58.897Z,26.28
2023-05-24T09:27:58.906Z,26.26
2023-05-24T09:28:58.891Z,26.26
2023-05-24T09:29:58.857Z,26.23
2023-05-24T09:30:58.924Z,26.23
2023-05-24T09:31:59.026Z,26.28
2023-05-24T09:32:58.900Z,26.23
2023-05-24T09:33:58.842Z,26.23
2023-05-24T09:34:58.827Z,26.23
2023-05-24T09:35:58.792Z,26.23
2023-05-24T09:36:58.824Z,26.22
2023-05-24T09:37:58.826Z,26.22
2023-05-24T09:38:58.778Z,26.22
2023-05-24T09:39:58.802Z,26.23
2023-05-24T09:40:58.787Z,26.22
2023-05-24T09:41:58.772Z,26.21
2023-05-24T09:42:58.776Z,26.19
2023-05-24T09:43:58.765Z,26.21
2023-05-24T09:44:58.742Z,26.18
2023-05-24T09:45:58.750Z,26.18
2023-05-24T09:46:58.797Z,26.19
2023-05-24T09:47:58.805Z,26.18
2023-05-24T09:48:58.761Z,26.18
2023-05-24T09:49:58.748Z,26.19
2023-05-24T09:50:58.774Z,26.15
2023-05-24T09:51:59.188Z,26.16
2023-05-24T09:52:58.675Z,26.13
2023-05-24T09:53:58.698Z,26.13
2023-05-24T09:54:58.670Z,26.13
2023-05-24T09:55:59.671Z,26.12
2023-05-24T09:56:58.637Z,26.13
2023-05-24T09:57:58.643Z,26.12
2023-05-24T09:58:58.644Z,26.12
2023-05-24T09:59:58.642Z,26.09
2023-05-24T10:00:58.856Z,26.08
2023-05-24T10:01:58.670Z,26.11
2023-05-24T10:02:58.649Z,26.09
2023-05-24T10:03:58.721Z,26.08
2023-05-24T10:04:58.722Z,26.08
2023-05-24T10:05:58.607Z,26.08
2023-05-24T10:06:58.657Z,26.05
2023-05-24T10:07:58.754Z,26.06
2023-05-24T10:08:58.766Z,26.05
2023-05-24T10:09:58.818Z,26.05
2023-05-24T10:10:58.867Z,26.06
2023-05-24T10:11:58.929Z,26.02
2023-05-24T10:12:58.915Z,26.05
2023-05-24T10:13:58.984Z,26.03
2023-05-24T10:14:59.052Z,26.03
2023-05-24T10:15:59.076Z,26.02
2023-05-24T10:16:59.279Z,26.05
2023-05-24T10:17:59.223Z,26.02
2023-05-24T10:18:59.235Z,25.99
2023-05-24T10:19:59.347Z,26.02
2023-05-24T10:20:59.443Z,26.01
2023-05-24T10:21:59.369Z,25.98
2023-05-24T10:22:59.467Z,25.99
2023-05-24T10:23:59.491Z,25.99
2023-05-24T10:24:59.524Z,25.98
2023-05-24T10:25:59.618Z,25.98
2023-05-24T10:26:59.669Z,25.98
2023-05-24T10:27:59.755Z,25.95
2023-05-24T10:28:59.760Z,25.98
2023-05-24T10:29:59.841Z,25.96
2023-05-24T10:30:59.950Z,25.95
2023-05-24T10:31:59.946Z,25.95
2023-05-24T10:33:00.164Z,25.96
2023-05-24T10:34:07.276Z,25.93
2023-05-24T10:35:01.104Z,25.92
2023-05-24T10:36:00.040Z,25.92
2023-05-24T10:37:00.041Z,25.92
2023-05-24T10:38:00.064Z,25.91
2023-05-24T10:39:00.022Z,25.93
2023-05-24T10:40:00.080Z,25.92
2023-05-24T10:41:00.035Z,25.92
2023-05-24T10:42:00.647Z,25.89
2023-05-24T10:43:00.088Z,25.92
2023-05-24T10:44:08.652Z,25.89
2023-05-24T10:45:01.164Z,25.92
2023-05-24T10:46:00.352Z,25.92
2023-05-24T10:47:00.183Z,25.89
2023-05-24T10:48:00.206Z,25.89
2023-05-24T10:49:00.177Z,25.89
2023-05-24T10:50:00.256Z,25.89
2023-05-24T10:51:00.138Z,25.92
2023-05-24T10:52:00.135Z,25.88
2023-05-24T10:53:00.200Z,25.88
2023-05-24T10:54:00.264Z,25.88
2023-05-24T10:55:04.301Z,25.84
2023-05-24T10:56:00.398Z,25.85
2023-05-24T10:57:00.335Z,25.85
2023-05-24T10:58:00.327Z,25.85
2023-05-24T10:59:00.367Z,25.85
2023-05-24T11:00:00.281Z,25.85
2023-05-24T11:01:00.314Z,25.84
2023-05-24T11:02:00.780Z,25.85
2023-05-24T11:03:00.324Z,25.84
2023-05-24T11:04:00.285Z,25.85
2023-05-24T11:05:00.346Z,25.84
2023-05-24T11:06:00.494Z,25.84
2023-05-24T11:07:00.352Z,25.84
2023-05-24T11:08:00.456Z,25.81
2023-05-24T11:09:00.544Z,25.87
2023-05-24T11:10:00.592Z,25.85
2023-05-24T11:11:11.522Z,25.88
2023-05-24T11:12:01.629Z,25.87
2023-05-24T11:13:00.637Z,25.87
2023-05-24T11:14:00.645Z,25.87
2023-05-24T11:15:00.626Z,25.87
2023-05-24T11:16:00.664Z,25.89
2023-05-24T11:17:00.592Z,25.87
2023-05-24T11:18:00.715Z,25.89
2023-05-24T11:19:00.637Z,25.87
2023-05-24T11:20:00.727Z,25.87
2023-05-24T11:21:00.764Z,25.87
2023-05-24T11:22:00.830Z,25.91
2023-05-24T11:23:00.876Z,25.89
2023-05-24T11:24:00.983Z,25.88
2023-05-24T11:25:00.991Z,25.89
2023-05-24T11:26:01.069Z,25.88
2023-05-24T11:27:01.148Z,25.89
2023-05-24T11:28:01.213Z,25.88
2023-05-24T11:29:04.167Z,25.92
2023-05-24T11:30:01.283Z,25.91
2023-05-24T11:31:01.231Z,25.89
2023-05-24T11:32:01.361Z,25.91
2023-05-24T11:33:01.270Z,25.92
2023-05-24T11:34:01.233Z,25.91
2023-05-24T11:35:01.199Z,25.92
2023-05-24T11:36:01.251Z,25.91
2023-05-24T11:37:01.246Z,25.91
2023-05-24T11:38:01.205Z,25.92
2023-05-24T11:39:01.180Z,25.91
2023-05-24T11:40:01.205Z,25.93
2023-05-24T11:41:01.198Z,25.92
2023-05-24T11:42:01.201Z,25.93
2023-05-24T11:43:01.225Z,25.92
2023-05-24T11:44:01.127Z,25.92
2023-05-24T11:45:01.133Z,25.92
2023-05-24T11:46:01.133Z,25.92
2023-05-24T11:47:01.162Z,25.93
2023-05-24T11:48:01.189Z,25.92
2023-05-24T11:49:01.152Z,25.93
2023-05-24T11:50:01.119Z,25.91
2023-05-24T11:51:01.118Z,25.95
2023-05-24T11:52:01.115Z,25.96
2023-05-24T11:53:01.155Z,25.92
2023-05-24T11:54:01.180Z,25.92
2023-05-24T11:55:01.221Z,25.91
2023-05-24T11:56:01.309Z,25.91
2023-05-24T11:57:01.368Z,25.91
2023-05-24T11:58:01.409Z,25.91
2023-05-24T11:59:01.477Z,25.88
2023-05-24T12:00:01.566Z,25.85
2023-05-24T12:01:01.617Z,25.85
2023-05-24T12:02:01.964Z,25.87
2023-05-24T12:03:01.866Z,25.87
2023-05-24T12:04:01.856Z,25.87
2023-05-24T12:05:01.995Z,25.85
2023-05-24T12:06:01.946Z,25.85
2023-05-24T12:07:01.958Z,25.88
2023-05-24T12:08:02.019Z,25.85
2023-05-24T12:09:02.097Z,25.88
2023-05-24T12:10:02.184Z,25.87
2023-05-24T12:11:02.223Z,25.85
2023-05-24T12:12:02.266Z,25.89
2023-05-24T12:13:02.306Z,25.85
2023-05-24T12:14:02.351Z,25.87
2023-05-24T12:15:02.462Z,25.85
2023-05-24T12:16:02.554Z,25.85
2023-05-24T12:17:02.528Z,25.87
2023-05-24T12:18:02.601Z,25.87
2023-05-24T12:19:07.396Z,25.84
2023-05-24T12:20:03.657Z,25.85
2023-05-24T12:21:02.584Z,25.85
2023-05-24T12:22:02.597Z,25.85
2023-05-24T12:23:02.596Z,25.85
2023-05-24T12:24:02.598Z,25.85
2023-05-24T12:25:02.662Z,25.84
2023-05-24T12:26:02.573Z,25.87
2023-05-24T12:27:02.584Z,25.85
2023-05-24T12:28:02.577Z,25.84
2023-05-24T12:29:02.676Z,25.82
2023-05-24T12:30:02.668Z,25.84
2023-05-24T12:31:02.764Z,25.82
2023-05-24T12:32:02.870Z,25.84
2023-05-24T12:33:02.918Z,25.82
2023-05-24T12:34:02.898Z,25.81
2023-05-24T12:35:02.936Z,25.81
2023-05-24T12:36:03.032Z,25.81
2023-05-24T12:37:03.236Z,25.81
2023-05-24T12:38:03.135Z,25.82
2023-05-24T12:39:03.155Z,25.80
2023-05-24T12:40:03.159Z,25.82
2023-05-24T12:41:13.081Z,25.81
2023-05-24T12:42:04.277Z,25.78
2023-05-24T12:43:03.180Z,25.81
2023-05-24T12:44:03.190Z,25.81
2023-05-24T12:45:03.170Z,25.80
2023-05-24T12:46:03.180Z,25.80
2023-05-24T12:47:03.202Z,25.77
2023-05-24T12:48:03.236Z,25.80
2023-05-24T12:49:03.151Z,25.78
2023-05-24T12:50:03.155Z,25.80
2023-05-24T12:51:03.118Z,25.78
2023-05-24T12:52:03.187Z,25.80
2023-05-24T12:53:03.161Z,25.78
2023-05-24T12:54:03.187Z,25.77